ENHD Airport Information

Runway Information
Runway 14 Length 6957 ft width 148 ft
Elevation 61 ft Threshold 197 ft Heading 134
Runway 32 Length 6957 ft Width 148 ft
Elevation 86 ft Threshold 197 ft Heading 314
Airport Frequencies
Type ATIS Name ATIS Frequency 118.175 MHZ
Type TWR Name TWR Frequency 120.5 MHZ
Airport Navaids
Type VOR-DME Name Karmoy Frequency 115150 KHZ
Airport Weather Information & NOTAM
ADDS - METARS form results

(2123 UTC 17 December 2017)
 
METAR text: ENHD 172050Z 13013KT 9999 -RA FEW012 SCT016 BKN019 04/03 Q1007
Conditions at: ENHD (HAUGESUND/KARMOY, NO) observed 2050 UTC 17 December 2017
Temperature: 4.0°C (39°F)
Dewpoint: 3.0°C (37°F) [RH = 93%]
Pressure (altimeter): 29.73 inches Hg (1007.0 mb)
Winds: from the SE (130 degrees) at 15 MPH (13 knots; 6.8 m/s)
Visibility: 6 or more miles (10+ km)
Ceiling: 1900 feet AGL
Clouds: few clouds at 1200 feet AGL
scattered clouds at 1600 feet AGL
broken clouds at 1900 feet AGL
Weather: -RA  (light rain)